Time;durP1;ratioP1;P1;durP2;ratioP2;P2;SDS_P1;SDS_P2;PMS_P1;PMS_P2;Temp;Humidity;BMP_temperature;BMP_pressure;BME280_temperature;BME280_humidity;BME280_pressure;Samples;Min_cycle;Max_cycle;Signal;HPM_P1;HPM_P2
2020/12/02 00:02:09;;;;;;;7.38;4.50;;;28.40;66.70;;;;;;5089003;28;20592;-59
2020/12/02 00:04:40;;;;;;;4.63;4.20;;;28.40;66.70;;;;;;5080451;28;20229;-59
2020/12/02 00:07:10;;;;;;;4.45;3.85;;;28.40;66.80;;;;;;5074909;28;20550;-60
2020/12/02 00:09:41;;;;;;;4.40;3.70;;;28.40;66.90;;;;;;5040757;28;20226;-60
2020/12/02 00:12:13;;;;;;;5.57;4.10;;;28.40;66.90;;;;;;5049219;28;20279;-59
2020/12/02 00:14:44;;;;;;;5.05;4.55;;;28.40;67.00;;;;;;5046652;28;20245;-58
2020/12/02 00:17:18;;;;;;;6.43;4.55;;;28.40;67.00;;;;;;4992979;28;20241;-59
2020/12/02 00:19:49;;;;;;;4.70;4.28;;;28.40;67.00;;;;;;4988977;28;20223;-60
2020/12/02 00:22:20;;;;;;;5.50;3.97;;;28.40;67.20;;;;;;4988257;28;20285;-59
2020/12/02 00:24:51;;;;;;;7.97;4.50;;;28.50;67.10;;;;;;4991920;28;20237;-59
2020/12/02 00:27:24;;;;;;;5.50;4.45;;;28.40;66.90;;;;;;4994069;28;20317;-60
2020/12/02 00:29:55;;;;;;;4.40;4.00;;;28.50;67.00;;;;;;4987772;28;20235;-58
2020/12/02 00:32:29;;;;;;;6.43;4.07;;;28.40;67.00;;;;;;4985974;28;20227;-58
2020/12/02 00:35:00;;;;;;;7.75;5.82;;;28.40;67.00;;;;;;4989780;28;20315;-58
2020/12/02 00:37:31;;;;;;;6.47;5.10;;;28.40;66.90;;;;;;4998101;28;20239;-58
2020/12/02 00:40:02;;;;;;;4.80;4.28;;;28.50;67.00;;;;;;5010576;28;20238;-60
2020/12/02 00:42:34;;;;;;;4.50;3.78;;;28.50;67.10;;;;;;5041777;28;20610;-58
2020/12/02 00:45:05;;;;;;;3.97;3.58;;;28.50;66.90;;;;;;5055081;28;20292;-59
2020/12/02 00:47:35;;;;;;;3.90;3.50;;;28.50;66.90;;;;;;5050511;28;20281;-59
2020/12/02 00:50:08;;;;;;;4.13;3.20;;;28.50;66.90;;;;;;5078923;28;20252;-59
2020/12/02 00:52:38;;;;;;;4.93;3.53;;;28.60;67.10;;;;;;5077390;28;20228;-58
2020/12/02 00:55:09;;;;;;;4.97;3.38;;;28.60;66.80;;;;;;5075300;28;20283;-59
2020/12/02 00:57:40;;;;;;;5.13;3.33;;;28.60;66.60;;;;;;5079169;28;20236;-59
2020/12/02 01:00:11;;;;;;;4.18;3.65;;;28.60;66.40;;;;;;5085866;28;20244;-60
2020/12/02 01:02:45;;;;;;;4.85;3.35;;;28.70;67.30;;;;;;5094807;28;20292;-59
2020/12/02 01:05:17;;;;;;;3.80;3.40;;;28.70;66.50;;;;;;5037958;28;20241;-59
2020/12/02 01:07:47;;;;;;;3.90;3.30;;;28.70;66.50;;;;;;5037732;28;20295;-59
2020/12/02 01:10:18;;;;;;;4.30;3.90;;;28.80;66.50;;;;;;5034880;28;20230;-60
2020/12/02 01:12:50;;;;;;;4.10;3.13;;;28.80;66.50;;;;;;5045590;28;20230;-60
2020/12/02 01:15:22;;;;;;;4.10;3.40;;;28.80;66.40;;;;;;5034286;28;20276;-57
2020/12/02 01:18:16;;;;;;;5.47;3.30;;;28.80;66.40;;;;;;5033451;28;20240;-59
2020/12/02 01:20:47;;;;;;;3.95;3.65;;;28.90;66.50;;;;;;5036945;28;20687;-58
2020/12/02 01:23:18;;;;;;;3.88;3.22;;;28.90;66.20;;;;;;5037018;28;20315;-58
2020/12/02 01:25:50;;;;;;;7.47;6.70;;;28.90;66.20;;;;;;4984778;28;20247;-60
2020/12/02 01:28:24;;;;;;;11.38;7.85;;;28.90;66.00;;;;;;4988076;28;20231;-59
2020/12/02 01:30:55;;;;;;;7.38;6.68;;;29.00;65.90;;;;;;4970804;28;20290;-59
2020/12/02 01:33:27;;;;;;;7.85;4.47;;;29.00;66.70;;;;;;4985135;28;20270;-59
2020/12/02 01:35:57;;;;;;;4.53;4.13;;;28.90;65.80;;;;;;5007784;28;20226;-59
2020/12/02 01:38:31;;;;;;;4.05;3.65;;;28.90;65.70;;;;;;5057626;28;21042;-59
2020/12/02 01:41:02;;;;;;;3.83;3.30;;;29.00;65.80;;;;;;5040460;28;20393;-59
2020/12/02 01:43:34;;;;;;;3.80;3.50;;;29.00;65.90;;;;;;5002641;28;20235;-59
2020/12/02 01:46:08;;;;;;;5.93;4.45;;;29.00;65.90;;;;;;4995005;28;20669;-59
2020/12/02 01:48:57;;;;;;;5.00;4.50;;;29.00;66.10;;;;;;4986803;28;20259;-59
2020/12/02 01:51:54;;;;;;;5.80;3.95;;;29.00;66.00;;;;;;4965864;28;20243;-58
2020/12/02 01:54:27;;;;;;;4.68;4.10;;;29.10;66.00;;;;;;4965433;28;20379;-59
2020/12/02 01:57:02;;;;;;;3.90;3.47;;;29.10;66.20;;;;;;4967377;28;20236;-59
2020/12/02 01:59:38;;;;;;;5.55;4.10;;;29.20;66.40;;;;;;4986816;28;20228;-59
2020/12/02 02:02:12;;;;;;;4.35;3.88;;;29.20;66.00;;;;;;4990620;28;20280;-58
2020/12/02 02:04:47;;;;;;;4.80;4.10;;;29.30;66.10;;;;;;4986926;28;20326;-59
2020/12/02 02:07:18;;;;;;;3.80;3.08;;;29.30;66.00;;;;;;4982370;28;20239;-59
2020/12/02 02:09:48;;;;;;;5.88;3.78;;;29.40;65.90;;;;;;4965741;28;20229;-59
2020/12/02 02:12:32;;;;;;;6.82;3.45;;;29.40;65.90;;;;;;4976632;28;20227;-58
2020/12/02 02:15:09;;;;;;;4.18;2.95;;;29.50;65.50;;;;;;4997537;28;20263;-57
2020/12/02 02:17:40;;;;;;;4.00;2.95;;;29.60;65.70;;;;;;5023265;28;20233;-59
2020/12/02 02:20:11;;;;;;;6.38;3.28;;;29.60;66.00;;;;;;5019933;28;20681;-59
2020/12/02 02:22:42;;;;;;;3.42;3.13;;;29.70;65.90;;;;;;5051248;28;20282;-59
2020/12/02 02:25:13;;;;;;;3.88;2.63;;;29.80;66.10;;;;;;5049571;28;20233;-58
2020/12/02 02:27:44;;;;;;;5.18;2.63;;;29.90;66.00;;;;;;5046572;28;20328;-59
2020/12/02 02:30:15;;;;;;;5.25;2.60;;;30.00;65.30;;;;;;5054924;28;20680;-60
2020/12/02 02:32:46;;;;;;;3.15;2.55;;;30.10;64.80;;;;;;5050361;28;20247;-58
2020/12/02 02:35:17;;;;;;;2.88;2.40;;;30.20;64.10;;;;;;5061158;28;20336;-60
2020/12/02 02:37:47;;;;;;;2.80;2.28;;;30.30;64.30;;;;;;5057213;28;20229;-61
2020/12/02 02:40:18;;;;;;;2.80;2.50;;;30.40;64.10;;;;;;5070504;28;20278;-60
2020/12/02 02:42:51;;;;;;;2.88;2.47;;;30.50;63.80;;;;;;5059274;28;20233;-59
2020/12/02 02:45:26;;;;;;;4.40;2.83;;;30.60;63.90;;;;;;5065651;28;20241;-61
2020/12/02 02:47:57;;;;;;;2.72;2.38;;;30.70;63.20;;;;;;5073061;28;20227;-59
2020/12/02 02:50:28;;;;;;;3.33;2.58;;;30.80;63.00;;;;;;5116927;27;20238;-60
2020/12/02 02:52:58;;;;;;;4.85;2.70;;;30.90;62.40;;;;;;5097736;28;20223;-59
2020/12/02 02:55:29;;;;;;;2.55;2.35;;;30.90;61.90;;;;;;5099849;28;20224;-58
2020/12/02 02:58:01;;;;;;;2.60;2.40;;;31.00;61.60;;;;;;5106255;28;20242;-59
2020/12/02 03:00:32;;;;;;;2.63;2.42;;;31.00;61.60;;;;;;5113798;27;20796;-59
2020/12/02 03:03:03;;;;;;;2.33;2.13;;;31.00;61.40;;;;;;5105935;27;20239;-59
2020/12/02 03:05:34;;;;;;;2.90;2.13;;;31.00;61.60;;;;;;5105697;28;20319;-60
2020/12/02 03:08:05;;;;;;;3.20;2.67;;;31.00;61.80;;;;;;5095863;28;20638;-58
2020/12/02 03:10:36;;;;;;;3.00;2.65;;;31.10;61.80;;;;;;5089252;27;20235;-58
2020/12/02 03:13:14;;;;;;;3.38;2.40;;;31.10;61.80;;;;;;5092534;27;20231;-59
2020/12/02 03:15:45;;;;;;;2.78;2.30;;;31.10;61.90;;;;;;5099900;27;20327;-59
2020/12/02 03:18:18;;;;;;;3.78;2.97;;;31.20;62.00;;;;;;5097396;27;20233;-59
2020/12/02 03:20:51;;;;;;;4.20;3.22;;;31.20;61.80;;;;;;5095859;27;20707;-59
2020/12/02 03:23:21;;;;;;;3.17;2.75;;;31.30;61.40;;;;;;5033363;28;20313;-60
2020/12/02 03:25:52;;;;;;;3.33;2.70;;;31.30;61.40;;;;;;5031859;28;20226;-60
2020/12/02 03:28:28;;;;;;;2.85;2.47;;;31.30;61.10;;;;;;5039057;28;20744;-59
2020/12/02 03:30:59;;;;;;;2.03;1.83;;;31.30;61.00;;;;;;5035481;28;20763;-61
2020/12/02 03:33:30;;;;;;;2.50;2.00;;;31.30;61.00;;;;;;5036965;28;20226;-60
2020/12/02 03:36:00;;;;;;;2.67;2.00;;;31.30;60.80;;;;;;5044459;28;20230;-61
2020/12/02 03:38:31;;;;;;;2.03;1.80;;;31.30;60.70;;;;;;5041982;28;20244;-61
2020/12/02 03:41:01;;;;;;;2.53;2.15;;;31.30;61.10;;;;;;5039079;28;20232;-60
2020/12/02 03:43:33;;;;;;;3.28;2.13;;;31.30;61.30;;;;;;5043551;28;20245;-59
2020/12/02 03:46:04;;;;;;;4.97;2.05;;;31.30;61.30;;;;;;5037572;28;20234;-59
2020/12/02 03:48:34;;;;;;;2.40;2.08;;;31.30;61.40;;;;;;5003941;28;20694;-57
2020/12/02 03:51:05;;;;;;;4.85;1.80;;;31.40;61.50;;;;;;5014170;28;20242;-59
2020/12/02 03:53:35;;;;;;;2.28;2.08;;;31.40;61.00;;;;;;5011857;28;20282;-60
2020/12/02 03:56:06;;;;;;;2.00;1.85;;;31.40;60.80;;;;;;5059124;28;20229;-57
2020/12/02 03:58:38;;;;;;;3.40;1.80;;;31.40;60.60;;;;;;5057763;28;20416;-60
2020/12/02 04:01:09;;;;;;;2.78;1.90;;;31.50;60.50;;;;;;5060085;28;20244;-60
2020/12/02 04:03:39;;;;;;;2.20;1.90;;;31.40;60.30;;;;;;5056368;28;20692;-60
2020/12/02 04:06:10;;;;;;;2.00;1.80;;;31.40;60.50;;;;;;5057517;28;20248;-60
2020/12/02 04:08:41;;;;;;;2.78;2.30;;;31.40;60.50;;;;;;5052959;28;20308;-60
2020/12/02 04:11:11;;;;;;;2.30;2.10;;;31.40;60.30;;;;;;5060552;28;20264;-57
2020/12/02 04:13:43;;;;;;;2.92;2.05;;;31.40;60.50;;;;;;5059786;28;20337;-57
2020/12/02 04:16:14;;;;;;;3.47;2.28;;;31.40;60.70;;;;;;5057385;28;22276;-58
2020/12/02 04:18:44;;;;;;;4.40;2.70;;;31.40;60.50;;;;;;5068919;28;20280;-56
2020/12/02 04:21:15;;;;;;;2.50;2.20;;;31.40;60.30;;;;;;5101443;27;21138;-57
2020/12/02 04:23:46;;;;;;;3.30;2.50;;;31.40;60.80;;;;;;5100536;27;20254;-57
2020/12/02 04:26:17;;;;;;;2.65;2.25;;;31.40;61.00;;;;;;5102862;27;20232;-58
2020/12/02 04:28:48;;;;;;;3.92;2.60;;;31.40;61.10;;;;;;5100058;28;20281;-58
2020/12/02 04:31:19;;;;;;;6.97;2.65;;;31.40;60.70;;;;;;5109268;27;20228;-57
2020/12/02 04:33:49;;;;;;;3.40;1.60;;;31.50;61.00;;;;;;5106562;27;20313;-58
2020/12/02 04:36:20;;;;;;;4.20;1.80;;;31.50;60.90;;;;;;5108876;27;20228;-56
2020/12/02 04:38:51;;;;;;;3.78;2.20;;;31.50;60.60;;;;;;5107909;27;20235;-56
2020/12/02 04:41:22;;;;;;;9.80;2.50;;;31.60;61.60;;;;;;5101572;27;20231;-57
2020/12/02 04:43:55;;;;;;;8.15;2.90;;;31.70;61.00;;;;;;5099832;27;20228;-56
2020/12/02 04:46:27;;;;;;;7.10;2.83;;;31.70;60.80;;;;;;5108868;28;20686;-58
2020/12/02 04:49:03;;;;;;;8.82;3.05;;;31.80;60.30;;;;;;5095320;28;20228;-58
2020/12/02 04:51:33;;;;;;;6.50;2.90;;;31.90;59.90;;;;;;5103102;27;20674;-58
2020/12/02 04:54:04;;;;;;;2.35;1.90;;;31.90;59.80;;;;;;5100387;28;20223;-58
2020/12/02 04:56:34;;;;;;;5.53;2.55;;;32.00;60.00;;;;;;5108239;27;20266;-59
2020/12/02 04:59:06;;;;;;;4.57;1.88;;;32.10;60.00;;;;;;5041015;28;20888;-57
2020/12/02 05:01:37;;;;;;;4.25;2.33;;;32.10;59.50;;;;;;5048636;28;20779;-55
2020/12/02 05:04:10;;;;;;;6.22;2.15;;;32.20;59.50;;;;;;5042873;28;20230;-59
2020/12/02 05:06:41;;;;;;;3.10;1.70;;;32.20;59.90;;;;;;4998434;28;20240;-58
2020/12/02 05:09:19;;;;;;;2.10;1.90;;;32.20;59.80;;;;;;5002354;28;20239;-57
2020/12/02 05:12:00;;;;;;;2.10;1.90;;;32.30;59.80;;;;;;4985571;28;20702;-57
2020/12/02 05:14:38;;;;;;;5.10;2.20;;;32.40;60.10;;;;;;5002172;28;20622;-59
2020/12/02 05:17:19;;;;;;;1.75;1.63;;;32.40;59.00;;;;;;5004557;28;20230;-55
2020/12/02 05:20:03;;;;;;;2.78;2.10;;;32.50;59.40;;;;;;4996243;28;20308;-58
2020/12/02 05:22:36;;;;;;;2.17;1.73;;;32.50;59.10;;;;;;4988194;28;20231;-59
2020/12/02 05:25:07;;;;;;;2.38;1.67;;;32.60;59.20;;;;;;4999056;28;20232;-59
2020/12/02 05:27:37;;;;;;;2.03;1.70;;;32.70;59.00;;;;;;5005225;28;20239;-59
2020/12/02 05:30:24;;;;;;;2.10;1.90;;;32.70;59.00;;;;;;5025276;28;20252;-58
2020/12/02 05:33:24;;;;;;;1.80;1.70;;;32.80;59.10;;;;;;5063436;28;20237;-58
2020/12/02 05:35:59;;;;;;;1.55;1.45;;;32.80;59.00;;;;;;5053022;28;20225;-58
2020/12/02 05:38:32;;;;;;;3.58;1.88;;;33.00;59.30;;;;;;5100423;28;20224;-59
2020/12/02 05:41:02;;;;;;;1.73;1.55;;;33.00;59.00;;;;;;5103417;28;20219;-58
2020/12/02 05:43:38;;;;;;;1.45;1.35;;;33.10;59.00;;;;;;5108025;28;20236;-57
2020/12/02 05:46:14;;;;;;;2.75;1.65;;;33.20;58.60;;;;;;5102505;28;20310;-58
2020/12/02 05:48:45;;;;;;;4.13;1.80;;;33.30;57.80;;;;;;5040288;28;20257;-57
2020/12/02 05:51:20;;;;;;;9.68;3.47;;;33.40;57.40;;;;;;5044698;28;20241;-59
2020/12/02 05:53:52;;;;;;;3.90;1.55;;;33.40;57.20;;;;;;5038529;28;20246;-57
2020/12/02 05:56:23;;;;;;;4.03;2.15;;;33.40;57.30;;;;;;5026887;28;20651;-58
2020/12/02 05:58:53;;;;;;;4.03;2.10;;;33.40;57.10;;;;;;5028268;28;20233;-58
2020/12/02 06:01:26;;;;;;;3.63;1.90;;;33.50;57.40;;;;;;5030770;28;20226;-57
2020/12/02 06:03:57;;;;;;;1.90;1.60;;;33.50;57.20;;;;;;5028938;28;20242;-58
2020/12/02 06:06:30;;;;;;;3.65;1.80;;;33.50;57.20;;;;;;5026889;28;20713;-58
2020/12/02 06:09:01;;;;;;;2.17;1.98;;;33.50;57.60;;;;;;5028418;28;20317;-59
2020/12/02 06:11:36;;;;;;;3.78;2.22;;;33.60;57.50;;;;;;5027199;28;20369;-59
2020/12/02 06:14:10;;;;;;;2.97;1.80;;;33.60;57.10;;;;;;5078722;28;20274;-56
2020/12/02 06:16:48;;;;;;;2.63;1.70;;;33.70;56.60;;;;;;5082501;28;20235;-57
2020/12/02 06:19:25;;;;;;;2.20;1.92;;;33.70;56.80;;;;;;5088261;28;20580;-57
2020/12/02 06:21:58;;;;;;;2.03;1.80;;;33.80;56.90;;;;;;5083298;28;20255;-61
2020/12/02 06:24:49;;;;;;;2.72;2.08;;;33.80;56.70;;;;;;5085254;28;20236;-60
2020/12/02 06:27:41;;;;;;;2.40;1.70;;;33.80;56.60;;;;;;5082258;28;22189;-60
2020/12/02 06:30:18;;;;;;;2.05;1.75;;;33.80;56.80;;;;;;5091937;28;20675;-61
2020/12/02 06:33:18;;;;;;;1.70;1.60;;;33.90;56.80;;;;;;5090679;28;20236;-61
2020/12/02 06:35:51;;;;;;;2.10;1.83;;;33.90;57.30;;;;;;5094123;28;20220;-59
2020/12/02 06:38:31;;;;;;;1.83;1.52;;;34.00;57.10;;;;;;5038293;28;20230;-61
2020/12/02 06:41:36;;;;;;;2.53;1.60;;;34.10;56.90;;;;;;5020109;28;20234;-60
2020/12/02 06:44:34;;;;;;;2.00;1.50;;;34.20;56.90;;;;;;5035232;28;20233;-61
2020/12/02 06:47:30;;;;;;;1.70;1.60;;;34.30;56.40;;;;;;5001955;28;20816;-59
2020/12/02 06:50:05;;;;;;;1.80;1.40;;;34.30;56.20;;;;;;5030579;28;20234;-60
2020/12/02 06:52:37;;;;;;;1.52;1.42;;;34.40;55.90;;;;;;5036958;28;20728;-59
2020/12/02 06:55:22;;;;;;;1.67;1.40;;;34.50;55.40;;;;;;5033711;28;20252;-59
2020/12/02 06:58:00;;;;;;;2.97;1.80;;;34.60;55.40;;;;;;5038981;28;20230;-60
2020/12/02 07:00:32;;;;;;;1.75;1.50;;;34.60;55.60;;;;;;5034541;28;20283;-59
2020/12/02 07:03:04;;;;;;;5.78;1.90;;;34.60;55.50;;;;;;5031771;28;20804;-58
2020/12/02 07:05:39;;;;;;;3.45;1.52;;;34.60;54.90;;;;;;5034213;28;20238;-58
2020/12/02 07:08:21;;;;;;;2.58;1.50;;;34.70;55.70;;;;;;5036162;28;20304;-59
2020/12/02 07:10:58;;;;;;;1.70;1.60;;;34.70;55.10;;;;;;5075855;28;20247;-60
2020/12/02 07:13:28;;;;;;;2.25;1.70;;;34.70;55.00;;;;;;5082807;28;20227;-59
2020/12/02 07:15:59;;;;;;;3.38;1.65;;;34.70;54.70;;;;;;5081210;28;20594;-57
2020/12/02 07:18:30;;;;;;;1.63;1.50;;;34.70;54.40;;;;;;5076060;28;20650;-58
2020/12/02 07:21:06;;;;;;;1.85;1.67;;;34.70;54.50;;;;;;5081829;28;20233;-59
2020/12/02 07:23:37;;;;;;;1.92;1.50;;;34.70;54.40;;;;;;5035402;28;20229;-60
2020/12/02 07:26:08;;;;;;;2.58;1.50;;;34.60;54.40;;;;;;5033703;28;20240;-59
2020/12/02 07:28:39;;;;;;;4.00;1.67;;;34.60;54.70;;;;;;4999751;28;20702;-59
2020/12/02 07:31:17;;;;;;;1.70;1.48;;;34.60;54.90;;;;;;4997540;28;20493;-58
2020/12/02 07:34:05;;;;;;;2.30;1.67;;;34.60;55.20;;;;;;5002167;28;20723;-59
2020/12/02 07:36:37;;;;;;;2.10;1.75;;;34.60;55.10;;;;;;5010600;28;20763;-59
2020/12/02 07:39:12;;;;;;;2.00;1.70;;;34.60;54.80;;;;;;5004449;28;20243;-59
2020/12/02 07:41:51;;;;;;;3.58;1.70;;;34.60;55.10;;;;;;4997413;28;20785;-58
2020/12/02 07:44:22;;;;;;;1.90;1.70;;;34.60;55.30;;;;;;4997034;28;20241;-60
2020/12/02 07:46:53;;;;;;;2.00;1.80;;;34.60;55.40;;;;;;5008807;28;20313;-59
2020/12/02 07:49:23;;;;;;;1.95;1.73;;;34.60;55.30;;;;;;5003464;28;20231;-60
2020/12/02 07:51:59;;;;;;;2.70;1.77;;;34.60;55.50;;;;;;4947352;28;20287;-60
2020/12/02 07:54:29;;;;;;;2.40;1.90;;;34.60;55.70;;;;;;4994161;28;20234;-60
2020/12/02 07:57:00;;;;;;;3.03;2.00;;;34.70;55.10;;;;;;5030978;28;20700;-60
2020/12/02 07:59:32;;;;;;;1.60;1.48;;;34.70;54.80;;;;;;5009363;28;20234;-60
2020/12/02 08:02:11;;;;;;;3.10;1.63;;;34.80;55.10;;;;;;5037601;28;20564;-58
2020/12/02 08:04:54;;;;;;;2.58;1.60;;;34.80;54.70;;;;;;5025406;28;20245;-59
2020/12/02 08:07:39;;;;;;;1.92;1.73;;;34.90;54.60;;;;;;5045780;28;20264;-59
2020/12/02 08:10:22;;;;;;;3.10;1.73;;;34.80;54.60;;;;;;5043278;28;20946;-60
2020/12/02 08:12:52;;;;;;;4.18;1.92;;;34.90;54.70;;;;;;5038190;28;20272;-60
2020/12/02 08:15:23;;;;;;;3.20;1.85;;;34.90;54.40;;;;;;5039923;28;20412;-59
2020/12/02 08:18:14;;;;;;;2.17;1.88;;;34.90;54.30;;;;;;5031913;28;20671;-57
2020/12/02 08:20:44;;;;;;;2.17;1.92;;;34.90;54.70;;;;;;5042492;28;20312;-60
2020/12/02 08:23:17;;;;;;;2.35;1.83;;;35.00;54.60;;;;;;5039420;28;21252;-60
2020/12/02 08:26:03;;;;;;;2.28;1.75;;;35.00;54.80;;;;;;5043897;28;20272;-60
2020/12/02 08:28:36;;;;;;;2.70;1.95;;;35.10;54.70;;;;;;4981907;28;20762;-58
2020/12/02 08:31:14;;;;;;;2.30;2.10;;;35.20;54.00;;;;;;5015570;28;20234;-59
2020/12/02 08:34:12;;;;;;;4.72;2.28;;;35.20;54.30;;;;;;4978383;28;20247;-60
2020/12/02 08:36:43;;;;;;;2.33;1.70;;;35.20;53.90;;;;;;4965331;28;20612;-60
2020/12/02 08:39:14;;;;;;;2.65;2.00;;;35.20;53.70;;;;;;4961896;28;20776;-60
2020/12/02 08:41:47;;;;;;;2.38;2.17;;;35.20;53.50;;;;;;4970041;28;20340;-60
2020/12/02 08:44:19;;;;;;;2.28;2.08;;;35.20;53.60;;;;;;4982066;28;20240;-60
2020/12/02 08:46:55;;;;;;;3.05;2.10;;;35.20;53.60;;;;;;4972505;28;20716;-58
2020/12/02 08:49:27;;;;;;;2.35;2.15;;;35.10;53.40;;;;;;4986117;28;21134;-57
2020/12/02 08:51:58;;;;;;;3.50;2.15;;;35.00;53.60;;;;;;4979281;28;20239;-57
2020/12/02 08:54:29;;;;;;;4.07;1.92;;;34.90;53.70;;;;;;5036752;28;20230;-57
2020/12/02 08:57:04;;;;;;;2.30;2.10;;;34.80;53.80;;;;;;5043174;28;20748;-58
2020/12/02 08:59:35;;;;;;;2.45;2.03;;;34.70;54.10;;;;;;5031489;28;20685;-58
2020/12/02 09:02:05;;;;;;;2.78;1.67;;;34.60;53.70;;;;;;5043377;28;20236;-56
2020/12/02 09:04:36;;;;;;;3.03;1.95;;;34.50;54.50;;;;;;5058859;28;20232;-57
2020/12/02 09:07:07;;;;;;;1.48;1.38;;;34.40;54.70;;;;;;5076734;28;20232;-58
2020/12/02 09:09:37;;;;;;;2.70;2.28;;;34.30;55.00;;;;;;5082498;28;20233;-59
2020/12/02 09:12:09;;;;;;;2.58;2.22;;;34.20;55.00;;;;;;5077315;28;20233;-58
2020/12/02 09:14:39;;;;;;;2.50;1.98;;;34.10;55.20;;;;;;5082077;28;20232;-59
2020/12/02 09:17:10;;;;;;;2.88;1.77;;;34.00;55.40;;;;;;5079150;28;20235;-57
2020/12/02 09:19:47;;;;;;;2.95;2.28;;;34.00;55.60;;;;;;5069083;28;20221;-56
2020/12/02 09:22:18;;;;;;;2.72;1.80;;;33.90;55.50;;;;;;5087009;27;20690;-57
2020/12/02 09:24:49;;;;;;;4.57;2.00;;;33.80;55.50;;;;;;5088916;28;20243;-58
2020/12/02 09:27:22;;;;;;;2.22;1.70;;;33.80;55.60;;;;;;5085206;28;20228;-59
2020/12/02 09:29:56;;;;;;;1.77;1.63;;;33.70;55.70;;;;;;5092311;27;20228;-58
2020/12/02 09:32:27;;;;;;;3.55;2.10;;;33.60;55.70;;;;;;5090126;28;20224;-58
2020/12/02 09:35:02;;;;;;;2.42;1.90;;;33.50;55.80;;;;;;5081347;28;20310;-59
2020/12/02 09:37:33;;;;;;;2.40;2.20;;;33.50;56.00;;;;;;5084098;28;20278;-56
2020/12/02 09:40:14;;;;;;;2.50;2.17;;;33.40;56.10;;;;;;5078873;28;20220;-59
2020/12/02 09:43:10;;;;;;;2.95;2.20;;;33.30;56.30;;;;;;5077478;27;20273;-59
2020/12/02 09:45:52;;;;;;;2.70;1.73;;;33.30;56.60;;;;;;5083771;28;20236;-59
2020/12/02 09:48:23;;;;;;;2.58;2.17;;;33.20;56.60;;;;;;5073147;28;20233;-59
2020/12/02 09:50:57;;;;;;;4.63;2.72;;;33.10;56.70;;;;;;5087988;28;20644;-59
2020/12/02 09:53:32;;;;;;;3.42;3.13;;;33.10;56.90;;;;;;5087367;28;20231;-59
2020/12/02 09:56:05;;;;;;;3.05;2.75;;;33.00;56.90;;;;;;5088924;28;20236;-59
2020/12/02 09:58:37;;;;;;;3.78;3.13;;;33.00;57.10;;;;;;5038051;28;20247;-58
2020/12/02 10:01:16;;;;;;;3.70;3.20;;;32.90;57.20;;;;;;5053238;28;20296;-58
2020/12/02 10:04:25;;;;;;;3.90;2.50;;;32.90;57.60;;;;;;5019732;28;20242;-59
2020/12/02 10:07:19;;;;;;;3.95;2.17;;;32.90;58.00;;;;;;5028327;28;20262;-59
2020/12/02 10:10:10;;;;;;;3.78;2.20;;;32.80;57.80;;;;;;5030339;28;20324;-59
2020/12/02 10:13:11;;;;;;;1.95;1.80;;;32.80;57.90;;;;;;4987062;28;20243;-59
2020/12/02 10:15:50;;;;;;;2.60;2.17;;;32.80;57.80;;;;;;5014598;28;20254;-59
2020/12/02 10:18:31;;;;;;;3.60;2.75;;;32.70;57.80;;;;;;5025941;28;20739;-59
2020/12/02 10:21:09;;;;;;;2.40;2.13;;;32.70;57.90;;;;;;4966368;28;20319;-58
2020/12/02 10:24:02;;;;;;;3.10;2.50;;;32.70;58.00;;;;;;4947568;28;20241;-59
2020/12/02 10:27:00;;;;;;;2.60;2.40;;;32.60;58.20;;;;;;4947940;28;20732;-59
2020/12/02 10:29:34;;;;;;;3.35;2.75;;;32.60;58.40;;;;;;4985158;28;20235;-58
2020/12/02 10:32:16;;;;;;;4.63;3.00;;;32.50;58.30;;;;;;4994055;28;20231;-60
2020/12/02 10:34:47;;;;;;;4.47;2.53;;;32.50;58.60;;;;;;5012067;28;20230;-57
2020/12/02 10:37:20;;;;;;;3.05;2.58;;;32.50;58.60;;;;;;5004476;28;20236;-57
2020/12/02 10:39:51;;;;;;;3.88;2.92;;;32.40;58.70;;;;;;4985618;28;20719;-59
2020/12/02 10:42:38;;;;;;;3.20;2.83;;;32.40;58.80;;;;;;4988397;28;20311;-58
2020/12/02 10:45:10;;;;;;;3.13;2.83;;;32.30;58.80;;;;;;5004401;28;20233;-59
2020/12/02 10:48:15;;;;;;;4.55;3.00;;;32.30;58.90;;;;;;5048820;28;20339;-59
2020/12/02 10:50:46;;;;;;;5.10;3.58;;;32.30;59.00;;;;;;5069618;28;20232;-60
2020/12/02 10:53:20;;;;;;;5.50;4.07;;;32.20;58.90;;;;;;5061969;28;20247;-58
2020/12/02 10:55:51;;;;;;;4.10;3.70;;;32.20;59.10;;;;;;5072801;28;20620;-59
2020/12/02 10:58:24;;;;;;;8.50;5.05;;;32.20;59.20;;;;;;5102469;28;20678;-60
2020/12/02 11:00:56;;;;;;;5.30;4.80;;;32.10;59.30;;;;;;5106910;28;20223;-60
2020/12/02 11:03:30;;;;;;;4.88;4.32;;;32.00;59.40;;;;;;5099783;27;20232;-61
2020/12/02 11:06:23;;;;;;;4.72;4.32;;;32.00;59.70;;;;;;5101941;28;20709;-60
2020/12/02 11:09:04;;;;;;;4.75;4.25;;;32.00;59.80;;;;;;5078148;28;20235;-60
2020/12/02 11:11:44;;;;;;;6.40;4.28;;;32.00;59.90;;;;;;5079826;28;20755;-61
2020/12/02 11:14:22;;;;;;;5.15;4.10;;;31.90;59.80;;;;;;5080378;28;20620;-60
2020/12/02 11:16:57;;;;;;;9.15;5.20;;;31.90;59.90;;;;;;5082984;28;20655;-61
2020/12/02 11:19:52;;;;;;;6.13;5.20;;;31.90;60.00;;;;;;5087449;28;20711;-61
2020/12/02 11:22:35;;;;;;;4.88;4.35;;;31.90;60.30;;;;;;5083953;28;20235;-60
2020/12/02 11:25:13;;;;;;;4.60;4.18;;;31.80;60.10;;;;;;5047372;28;20238;-59
2020/12/02 11:27:44;;;;;;;5.53;3.40;;;31.80;60.50;;;;;;5044838;28;20268;-60
2020/12/02 11:30:18;;;;;;;4.35;3.33;;;31.80;60.50;;;;;;5046551;28;20744;-58
2020/12/02 11:33:12;;;;;;;4.68;3.40;;;31.80;60.70;;;;;;5031146;28;20273;-59
2020/12/02 11:36:26;;;;;;;3.83;2.95;;;31.70;60.80;;;;;;5044881;28;20234;-58
2020/12/02 11:39:04;;;;;;;3.55;3.17;;;31.70;60.70;;;;;;5036056;28;20234;-59
2020/12/02 11:41:40;;;;;;;4.45;3.30;;;31.70;60.70;;;;;;4988278;28;21194;-60
2020/12/02 11:44:14;;;;;;;4.97;3.05;;;31.70;60.80;;;;;;4989503;28;20227;-58
2020/12/02 11:46:49;;;;;;;4.20;3.30;;;31.60;60.80;;;;;;5002363;28;20356;-61
2020/12/02 11:49:22;;;;;;;7.22;3.35;;;31.60;60.90;;;;;;5023859;28;20238;-60
2020/12/02 11:51:55;;;;;;;3.88;3.13;;;31.60;61.10;;;;;;5042641;28;20755;-61
2020/12/02 11:54:27;;;;;;;5.90;3.40;;;31.60;61.20;;;;;;5048096;28;20222;-59
2020/12/02 11:56:57;;;;;;;6.03;3.20;;;31.50;61.30;;;;;;5046007;28;20279;-60
2020/12/02 11:59:29;;;;;;;5.45;3.30;;;31.50;61.40;;;;;;5070696;28;20646;-60
2020/12/02 12:02:17;;;;;;;4.47;3.28;;;31.40;61.50;;;;;;5090067;28;20644;-60
2020/12/02 12:04:53;;;;;;;5.38;3.10;;;31.40;61.70;;;;;;5097111;28;20231;-61
2020/12/02 12:07:26;;;;;;;4.97;3.20;;;31.40;62.60;;;;;;5093791;28;20663;-61
2020/12/02 12:10:04;;;;;;;4.90;3.50;;;31.40;61.90;;;;;;5099264;28;20791;-59
2020/12/02 12:12:39;;;;;;;3.97;3.28;;;31.40;62.00;;;;;;5097787;28;20361;-61
2020/12/02 12:15:17;;;;;;;4.72;3.42;;;31.40;62.20;;;;;;5096859;28;20237;-60
2020/12/02 12:17:48;;;;;;;5.07;3.58;;;31.30;62.30;;;;;;5092303;28;20233;-61
2020/12/02 12:20:19;;;;;;;5.90;3.80;;;31.30;62.10;;;;;;5020719;28;20272;-60
2020/12/02 12:22:52;;;;;;;4.95;3.58;;;31.30;62.20;;;;;;5018003;28;20310;-60
2020/12/02 12:25:24;;;;;;;5.43;3.97;;;31.20;62.30;;;;;;4970408;28;20236;-60
2020/12/02 12:28:00;;;;;;;4.13;3.60;;;31.20;62.40;;;;;;4973524;28;20646;-60
2020/12/02 12:30:30;;;;;;;4.47;3.50;;;31.20;62.60;;;;;;4986382;28;20262;-60
2020/12/02 12:33:04;;;;;;;4.45;3.33;;;31.20;62.60;;;;;;4972199;28;20231;-60
2020/12/02 12:35:39;;;;;;;4.00;3.70;;;31.10;62.60;;;;;;4963508;28;20263;-60
2020/12/02 12:38:18;;;;;;;5.30;3.90;;;31.10;62.60;;;;;;4975363;28;20223;-60
2020/12/02 12:40:51;;;;;;;7.78;3.85;;;31.10;62.80;;;;;;4983339;28;20369;-59
2020/12/02 12:43:21;;;;;;;4.55;3.80;;;31.10;62.90;;;;;;4987111;28;20696;-60
2020/12/02 12:45:55;;;;;;;5.15;4.20;;;31.10;63.00;;;;;;5043201;28;20222;-60
2020/12/02 12:48:27;;;;;;;6.03;4.50;;;31.00;63.00;;;;;;5030803;28;20712;-58
2020/12/02 12:50:58;;;;;;;5.03;4.57;;;31.00;63.00;;;;;;5026404;28;20248;-59
2020/12/02 12:53:29;;;;;;;8.02;6.38;;;31.00;63.20;;;;;;5021401;28;20277;-59
2020/12/02 12:56:00;;;;;;;11.98;8.45;;;31.00;63.40;;;;;;5050715;28;20236;-60
2020/12/02 12:58:31;;;;;;;10.05;8.00;;;31.00;63.40;;;;;;5086889;28;20269;-60
2020/12/02 13:01:01;;;;;;;8.55;7.35;;;30.90;63.40;;;;;;5088830;28;20235;-59
2020/12/02 13:03:32;;;;;;;7.05;6.22;;;30.90;63.50;;;;;;5089158;28;20225;-57
2020/12/02 13:06:20;;;;;;;5.93;4.93;;;30.90;63.60;;;;;;5083036;28;20618;-58
2020/12/02 13:08:55;;;;;;;5.55;3.75;;;30.90;63.90;;;;;;5079970;28;20232;-60
2020/12/02 13:11:31;;;;;;;4.22;3.60;;;30.80;63.70;;;;;;5075176;28;20228;-61
2020/12/02 13:14:20;;;;;;;3.80;3.20;;;30.80;63.80;;;;;;5086777;28;20256;-61
2020/12/02 13:16:56;;;;;;;4.10;3.70;;;30.70;63.80;;;;;;5083653;28;20231;-60
2020/12/02 13:19:32;;;;;;;3.25;2.95;;;30.70;63.90;;;;;;5092964;28;20756;-60
2020/12/02 13:22:04;;;;;;;4.10;3.33;;;30.70;64.00;;;;;;5098380;28;20231;-60
2020/12/02 13:24:40;;;;;;;3.67;3.30;;;30.70;64.10;;;;;;5048251;28;20306;-58
2020/12/02 13:27:17;;;;;;;3.78;3.03;;;30.70;64.20;;;;;;5034592;28;20234;-60